Kezdőlap
METAR-TAF:

METAR-TAF

Repülőterek :

Szingapúr-Changi repülőtér

Szingapúr, Szingapúr

földrajzi szélesség: 01-22N, földrajzi hosszúság: 103-59E, magasság: 5 m

Jelenlegi meteorológiai megfigyelések

A jelentés 28 perccel ezelõtt készült, 13:30 UTC
Különbözõ irányokból fújó szél 2 kt
Hőmérséklet 28°C
Páratartalom 84%
Légköri nyomás 1010 hPa
Látótávolság 10 km, vagy több
Kevés felhő 2000 lábon
Szakadozott felhőzet 30000 lábon

METAR: WSSS 161330Z VRB02KT 9999 FEW020 BKN300 28/25 Q1010 NOSIG

Idő: 21:58 (13:58 UTC)

Előrejelzés

A jelentés 2 órával és 58 perccel ezelõtt készült, 11:00 UTC
Az előrejelzés 16-én 12 óra UTC és 17-én 18 óra UTC között érvényes
Dél-délkeleti szél 6 kt
Látótávolság 10 km, vagy több
Kevés felhő 1800 lábon, Cumulonimbus.
Szórványos felhőzet 2000 lábon

TAF: WSSS 161100Z 1612/1718 16006KT 9999 FEW018CB SCT020

Meteorológiai megfigyelések és előrejelzések több, mint 4000 repülőtéren (METAR és TAF jelentéseket).

A térképen piros és sárga pontok jelzik az elérhető meteorológiai állomásokat.

Mozgassa az egeret a pont fölött, hogy megjelenjen az állomás neve.

Azután kattintson az időjárási megfigyelések és előrejelzések megtekintéséhez.

A térkép megváltoztatása: kattintson a fekete keresztel jelölt zöld gombra ráközelítéshez, a vonallal jelölt zöld gombra távolításhoz, vagy a zöld nyilakra a szomszédos térképek eléréséhez.


METAR-TAF: